createdAt,value
2019-05-21T00:00:33.775Z,30.20
2019-05-21T00:01:38.550Z,31.93
2019-05-21T00:02:42.735Z,30.23
2019-05-21T00:03:47.698Z,30.15
2019-05-21T00:04:51.878Z,30.85
2019-05-21T00:05:56.682Z,29.18
2019-05-21T00:07:00.906Z,30.77
2019-05-21T00:08:05.662Z,30.85
2019-05-21T00:09:09.847Z,31.50
2019-05-21T00:10:14.596Z,29.35
2019-05-21T00:11:18.769Z,30.33
2019-05-21T00:12:23.568Z,30.43
2019-05-21T00:13:27.752Z,31.73
2019-05-21T00:14:32.710Z,30.37
2019-05-21T00:15:36.890Z,30.37
2019-05-21T00:16:41.690Z,30.80
2019-05-21T00:17:45.933Z,29.75
2019-05-21T00:18:50.712Z,30.23
2019-05-21T00:19:54.951Z,29.55
2019-05-21T00:20:59.677Z,30.32
2019-05-21T00:22:04.823Z,29.36
2019-05-21T00:23:09.559Z,28.27
2019-05-21T00:24:13.738Z,29.43
2019-05-21T00:25:18.651Z,29.00
2019-05-21T00:26:22.915Z,30.13
2019-05-21T00:27:27.721Z,30.27
2019-05-21T00:28:38.806Z,28.80
2019-05-21T00:30:19.641Z,29.20
2019-05-21T00:32:00.830Z,29.00
2019-05-21T00:33:41.645Z,27.73
2019-05-21T00:35:24.212Z,27.10
2019-05-21T00:37:06.840Z,28.10
2019-05-21T00:38:47.529Z,28.97
2019-05-21T00:40:29.549Z,28.07
2019-05-21T00:42:02.129Z,28.05
2019-05-21T00:43:06.930Z,27.00
2019-05-21T00:44:11.414Z,26.90
2019-05-21T00:45:15.687Z,27.70
2019-05-21T00:46:20.421Z,26.80
2019-05-21T00:47:24.600Z,27.40
2019-05-21T00:48:29.335Z,26.87
2019-05-21T00:49:33.578Z,26.52
2019-05-21T00:50:38.421Z,27.27
2019-05-21T00:51:42.571Z,25.43
2019-05-21T00:52:47.413Z,26.77
2019-05-21T00:53:51.589Z,26.10
2019-05-21T00:54:56.438Z,26.35
2019-05-21T00:56:00.746Z,24.37
2019-05-21T00:57:05.541Z,25.37
2019-05-21T00:58:09.717Z,25.30
2019-05-21T00:59:14.498Z,25.40
2019-05-21T01:00:18.676Z,25.15
2019-05-21T01:01:23.593Z,26.43
2019-05-21T01:02:27.774Z,24.67
2019-05-21T01:03:32.515Z,24.30
2019-05-21T01:04:37.728Z,24.67
2019-05-21T01:05:42.482Z,23.02
2019-05-21T01:06:46.725Z,22.73
2019-05-21T01:07:51.453Z,23.65
2019-05-21T01:08:55.717Z,22.90
2019-05-21T01:10:00.464Z,23.02
2019-05-21T01:11:04.636Z,21.97
2019-05-21T01:12:09.416Z,21.45
2019-05-21T01:13:13.646Z,22.70
2019-05-21T01:14:18.447Z,21.80
2019-05-21T01:15:22.999Z,20.97
2019-05-21T01:16:27.821Z,21.15
2019-05-21T01:17:32.167Z,21.48
2019-05-21T01:18:36.956Z,20.85
2019-05-21T01:19:41.161Z,19.73
2019-05-21T01:20:45.972Z,20.32
2019-05-21T01:21:50.150Z,20.25
2019-05-21T01:22:54.917Z,20.57
2019-05-21T01:23:59.100Z,20.25
2019-05-21T01:25:06.354Z,19.90
2019-05-21T01:26:10.602Z,20.37
2019-05-21T01:27:15.387Z,19.47
2019-05-21T01:28:19.563Z,19.03
2019-05-21T01:29:24.293Z,20.10
2019-05-21T01:30:28.514Z,18.70
2019-05-21T01:31:33.314Z,20.45
2019-05-21T01:32:37.568Z,19.55
2019-05-21T01:33:42.296Z,19.05
2019-05-21T01:34:46.641Z,17.80
2019-05-21T01:35:51.411Z,19.17
2019-05-21T01:36:55.749Z,18.87
2019-05-21T01:38:00.582Z,17.62
2019-05-21T01:39:06.007Z,18.45
2019-05-21T01:40:10.801Z,18.50
2019-05-21T01:41:15.205Z,19.03
2019-05-21T01:42:19.929Z,18.52
2019-05-21T01:43:24.106Z,18.95
2019-05-21T01:44:28.922Z,18.45
2019-05-21T01:45:33.159Z,17.35
2019-05-21T01:46:37.892Z,17.75
2019-05-21T01:47:42.132Z,18.50
2019-05-21T01:48:46.893Z,18.92
2019-05-21T01:49:51.071Z,18.05
2019-05-21T01:50:55.831Z,17.45
2019-05-21T01:52:00.224Z,18.32
2019-05-21T01:53:05.140Z,18.80
2019-05-21T01:54:09.314Z,17.25
2019-05-21T01:55:14.115Z,16.52
2019-05-21T01:56:18.293Z,17.00
2019-05-21T01:57:23.238Z,17.73
2019-05-21T01:58:27.424Z,16.60
2019-05-21T01:59:33.353Z,16.95
2019-05-21T02:00:37.602Z,16.30
2019-05-21T02:01:42.378Z,16.60
2019-05-21T02:02:46.703Z,16.70
2019-05-21T02:03:51.615Z,15.50
2019-05-21T02:04:55.997Z,15.00
2019-05-21T02:06:00.777Z,15.25
2019-05-21T02:07:05.022Z,15.38
2019-05-21T02:08:09.754Z,14.18
2019-05-21T02:09:13.941Z,15.43
2019-05-21T02:10:18.673Z,14.03
2019-05-21T02:11:22.886Z,15.13
2019-05-21T02:12:28.045Z,13.85
2019-05-21T02:13:32.309Z,15.53
2019-05-21T02:14:37.061Z,15.28
2019-05-21T02:15:41.610Z,13.88
2019-05-21T02:16:46.361Z,13.93
2019-05-21T02:17:50.533Z,12.98
2019-05-21T02:18:55.355Z,14.53
2019-05-21T02:19:59.559Z,13.88
2019-05-21T02:21:04.906Z,14.15
2019-05-21T02:22:09.084Z,13.85
2019-05-21T02:23:13.949Z,14.27
2019-05-21T02:24:18.174Z,13.47
2019-05-21T02:25:23.046Z,14.03
2019-05-21T02:26:27.186Z,13.07
2019-05-21T02:27:31.920Z,12.47
2019-05-21T02:28:36.096Z,13.13
2019-05-21T02:29:40.839Z,13.05
2019-05-21T02:30:45.380Z,12.07
2019-05-21T02:31:50.126Z,11.78
2019-05-21T02:32:54.361Z,12.33
2019-05-21T02:33:59.160Z,11.08
2019-05-21T02:35:05.106Z,11.64
2019-05-21T02:36:09.953Z,11.65
2019-05-21T02:37:14.130Z,12.37
2019-05-21T02:38:19.104Z,12.03
2019-05-21T02:39:23.366Z,11.10
2019-05-21T02:40:28.104Z,11.18
2019-05-21T02:41:32.451Z,11.33
2019-05-21T02:42:37.253Z,11.53
2019-05-21T02:43:41.495Z,10.23
2019-05-21T02:44:46.284Z,10.72
2019-05-21T02:45:50.432Z,10.75
2019-05-21T02:46:55.376Z,10.88
2019-05-21T02:47:59.478Z,10.27
2019-05-21T02:49:04.340Z,11.48
2019-05-21T02:50:08.985Z,9.55
2019-05-21T02:51:13.734Z,10.07
2019-05-21T02:52:17.912Z,10.07
2019-05-21T02:53:22.738Z,10.40
2019-05-21T02:54:40.334Z,9.95
2019-05-21T02:55:33.695Z,9.90
2019-05-21T02:56:38.042Z,10.25
2019-05-21T02:57:42.911Z,10.13
2019-05-21T02:58:47.082Z,9.48
2019-05-21T02:59:52.951Z,10.05
2019-05-21T03:00:58.851Z,9.18
2019-05-21T03:02:07.724Z,9.90
2019-05-21T03:03:13.504Z,9.77
2019-05-21T03:04:18.232Z,9.03
2019-05-21T03:05:22.418Z,10.40
2019-05-21T03:06:27.396Z,10.20
2019-05-21T03:07:32.620Z,9.65
2019-05-21T03:08:37.400Z,10.00
2019-05-21T03:09:41.649Z,9.78
2019-05-21T03:10:46.412Z,9.53
2019-05-21T03:11:50.561Z,9.70
2019-05-21T03:12:56.292Z,10.13
2019-05-21T03:14:00.499Z,9.55
2019-05-21T03:15:06.587Z,10.08
2019-05-21T03:16:10.895Z,10.10
2019-05-21T03:17:15.697Z,10.03
2019-05-21T03:18:19.892Z,10.37
2019-05-21T03:19:24.926Z,10.08
2019-05-21T03:20:29.161Z,9.95
2019-05-21T03:21:33.895Z,10.38
2019-05-21T03:22:38.063Z,10.60
2019-05-21T03:23:42.860Z,10.18
2019-05-21T03:24:47.046Z,10.05
2019-05-21T03:25:51.773Z,10.25
2019-05-21T03:26:56.017Z,10.78
2019-05-21T03:28:00.753Z,10.18
2019-05-21T03:29:05.070Z,10.78
2019-05-21T03:30:09.870Z,9.98
2019-05-21T03:31:14.132Z,9.87
2019-05-21T03:32:18.930Z,10.80
2019-05-21T03:33:23.316Z,10.30
2019-05-21T03:34:28.130Z,9.50
2019-05-21T03:35:32.362Z,10.48
2019-05-21T03:36:37.107Z,10.00
2019-05-21T03:37:41.303Z,11.00
2019-05-21T03:38:46.078Z,10.32
2019-05-21T03:39:50.212Z,11.22
2019-05-21T03:40:55.011Z,10.75
2019-05-21T03:41:59.211Z,10.63
2019-05-21T03:43:03.946Z,11.48
2019-05-21T03:44:09.161Z,11.80
2019-05-21T03:45:13.896Z,11.70
2019-05-21T03:46:18.136Z,11.13
2019-05-21T03:47:22.963Z,11.30
2019-05-21T03:48:27.184Z,9.83
2019-05-21T03:49:32.183Z,11.00
2019-05-21T03:50:36.406Z,11.40
2019-05-21T03:51:41.097Z,9.58
2019-05-21T03:52:45.296Z,9.93
2019-05-21T03:53:50.025Z,11.03
2019-05-21T03:54:54.202Z,10.28
2019-05-21T03:55:59.202Z,11.18
2019-05-21T03:57:04.061Z,10.84
2019-05-21T03:58:08.883Z,11.48
2019-05-21T03:59:13.058Z,10.43
2019-05-21T04:00:18.984Z,10.93
2019-05-21T04:01:23.262Z,10.63
2019-05-21T04:02:28.063Z,11.18
2019-05-21T04:03:32.259Z,10.53
2019-05-21T04:04:37.055Z,10.20
2019-05-21T04:05:41.302Z,9.80
2019-05-21T04:06:52.093Z,9.97
2019-05-21T04:07:52.058Z,9.55
2019-05-21T04:08:56.811Z,10.35
2019-05-21T04:10:01.041Z,10.38
2019-05-21T04:11:05.719Z,9.93
2019-05-21T04:12:10.398Z,11.97
2019-05-21T04:13:15.154Z,10.00
2019-05-21T04:14:36.950Z,9.70
2019-05-21T04:15:46.569Z,9.43
2019-05-21T04:16:52.502Z,10.28
2019-05-21T04:17:58.309Z,9.70
2019-05-21T04:19:04.195Z,10.05
2019-05-21T04:20:08.764Z,9.40
2019-05-21T04:21:13.491Z,10.30
2019-05-21T04:22:17.760Z,10.27
2019-05-21T04:23:25.984Z,11.37
2019-05-21T04:24:30.154Z,10.08
2019-05-21T04:25:34.932Z,9.63
2019-05-21T04:26:39.121Z,9.73
2019-05-21T04:27:44.017Z,9.23
2019-05-21T04:28:48.284Z,10.43
2019-05-21T04:29:53.018Z,10.48
2019-05-21T04:30:57.187Z,9.15
2019-05-21T04:32:02.250Z,10.13
2019-05-21T04:33:06.522Z,9.85
2019-05-21T04:34:12.331Z,9.70
2019-05-21T04:35:16.564Z,9.83
2019-05-21T04:36:21.301Z,10.18
2019-05-21T04:37:25.672Z,9.38
2019-05-21T04:38:30.505Z,9.55
2019-05-21T04:39:34.752Z,8.68
2019-05-21T04:40:39.965Z,9.75
2019-05-21T04:41:44.148Z,9.05
2019-05-21T04:42:49.082Z,8.78
2019-05-21T04:43:53.199Z,9.25
2019-05-21T04:44:59.029Z,9.08
2019-05-21T04:46:04.214Z,9.18
2019-05-21T04:47:08.938Z,9.13
2019-05-21T04:48:13.179Z,8.00
2019-05-21T04:49:18.074Z,8.60
2019-05-21T04:50:22.362Z,8.37
2019-05-21T04:51:27.510Z,8.73
2019-05-21T04:52:31.774Z,8.45
2019-05-21T04:53:36.507Z,8.08
2019-05-21T04:54:41.012Z,8.28
2019-05-21T04:55:45.750Z,8.20
2019-05-21T04:56:50.038Z,7.22
2019-05-21T04:57:55.162Z,7.67
2019-05-21T04:58:59.329Z,8.10
2019-05-21T05:00:05.782Z,7.80
2019-05-21T05:01:10.064Z,7.27
2019-05-21T05:02:14.796Z,6.90
2019-05-21T05:03:19.078Z,7.03
2019-05-21T05:04:23.792Z,7.63
2019-05-21T05:05:28.033Z,6.83
2019-05-21T05:06:32.767Z,6.55
2019-05-21T05:07:37.163Z,6.85
2019-05-21T05:08:41.956Z,6.70
2019-05-21T05:09:46.319Z,6.70
2019-05-21T05:10:51.035Z,6.55
2019-05-21T05:11:55.209Z,6.00
2019-05-21T05:13:00.067Z,6.92
2019-05-21T05:14:04.466Z,6.04
2019-05-21T05:15:09.364Z,6.80
2019-05-21T05:16:13.551Z,6.50
2019-05-21T05:17:18.388Z,7.27
2019-05-21T05:18:22.615Z,6.75
2019-05-21T05:19:27.501Z,6.60
2019-05-21T05:20:31.665Z,6.90
2019-05-21T05:21:36.397Z,6.95
2019-05-21T05:22:40.761Z,7.42
2019-05-21T05:23:45.482Z,6.75
2019-05-21T05:24:49.722Z,7.62
2019-05-21T05:25:54.637Z,7.15
2019-05-21T05:26:58.807Z,6.70
2019-05-21T05:28:03.954Z,7.40
2019-05-21T05:29:08.313Z,6.50
2019-05-21T05:30:13.428Z,6.70
2019-05-21T05:31:17.601Z,6.80
2019-05-21T05:32:22.338Z,6.90
2019-05-21T05:33:27.557Z,6.37
2019-05-21T05:34:32.286Z,6.15
2019-05-21T05:35:36.481Z,5.97
2019-05-21T05:36:41.335Z,5.83
2019-05-21T05:37:48.725Z,6.28
2019-05-21T05:38:51.993Z,5.90
2019-05-21T05:39:56.431Z,6.10
2019-05-21T05:41:01.148Z,5.37
2019-05-21T05:42:05.356Z,5.50
2019-05-21T05:43:10.137Z,5.53
2019-05-21T05:44:14.428Z,4.70
2019-05-21T05:45:20.318Z,5.33
2019-05-21T05:46:24.543Z,5.60
2019-05-21T05:47:29.455Z,5.25
2019-05-21T05:48:35.261Z,5.28
2019-05-21T05:49:49.574Z,5.25
2019-05-21T05:50:59.212Z,5.42
2019-05-21T05:52:04.070Z,5.22
2019-05-21T05:53:08.631Z,5.05
2019-05-21T05:54:13.415Z,5.50
2019-05-21T05:55:17.577Z,5.10
2019-05-21T05:56:24.097Z,4.90
2019-05-21T05:57:28.331Z,4.67
2019-05-21T05:58:33.055Z,5.42
2019-05-21T05:59:37.227Z,4.85
2019-05-21T06:00:42.006Z,5.90
2019-05-21T06:01:46.520Z,5.22
2019-05-21T06:02:51.416Z,4.33
2019-05-21T06:03:55.755Z,4.58
2019-05-21T06:05:00.509Z,4.75
2019-05-21T06:06:04.944Z,4.30
2019-05-21T06:07:09.695Z,4.53
2019-05-21T06:08:15.397Z,4.40
2019-05-21T06:09:20.291Z,4.57
2019-05-21T06:10:24.480Z,4.42
2019-05-21T06:11:29.213Z,4.25
2019-05-21T06:12:33.426Z,4.80
2019-05-21T06:13:38.149Z,4.60
2019-05-21T06:14:42.487Z,4.75
2019-05-21T06:15:47.277Z,4.72
2019-05-21T06:16:51.437Z,4.40
2019-05-21T06:17:56.225Z,4.30
2019-05-21T06:19:00.395Z,4.60
2019-05-21T06:20:07.203Z,4.17
2019-05-21T06:21:11.370Z,4.60
2019-05-21T06:22:16.193Z,4.08
2019-05-21T06:23:20.362Z,4.43
2019-05-21T06:24:26.247Z,3.83
2019-05-21T06:25:30.442Z,4.12
2019-05-21T06:26:35.242Z,4.20
2019-05-21T06:27:39.450Z,3.92
2019-05-21T06:28:44.164Z,3.58
2019-05-21T06:30:53.108Z,3.50
2019-05-21T06:31:57.456Z,3.80
2019-05-21T06:33:02.096Z,3.92
2019-05-21T06:34:06.938Z,3.72
2019-05-21T06:35:11.572Z,4.23
2019-05-21T06:36:16.124Z,3.60
2019-05-21T06:37:20.658Z,3.80
2019-05-21T06:38:25.202Z,3.65
2019-05-21T06:39:29.844Z,3.98
2019-05-21T06:40:34.195Z,3.20
2019-05-21T06:41:38.787Z,3.83
2019-05-21T06:42:43.243Z,3.65
2019-05-21T06:43:47.828Z,3.47
2019-05-21T06:44:52.201Z,3.60
2019-05-21T06:45:56.806Z,3.42
2019-05-21T06:47:01.171Z,3.33
2019-05-21T06:48:06.827Z,3.22
2019-05-21T06:49:11.235Z,3.60
2019-05-21T06:50:16.191Z,3.03
2019-05-21T06:51:21.729Z,3.63
2019-05-21T06:52:26.328Z,3.50
2019-05-21T06:53:31.044Z,3.58
2019-05-21T06:54:35.565Z,3.30
2019-05-21T06:55:41.149Z,3.52
2019-05-21T06:56:45.724Z,3.17
2019-05-21T06:57:50.073Z,2.90
2019-05-21T06:58:54.728Z,3.02
2019-05-21T06:59:59.330Z,3.22
2019-05-21T07:01:04.789Z,2.82
2019-05-21T07:02:09.265Z,3.37
2019-05-21T07:03:13.943Z,3.10
2019-05-21T07:04:18.343Z,2.80
2019-05-21T07:05:22.945Z,3.27
2019-05-21T07:06:27.356Z,3.20
2019-05-21T07:07:32.051Z,3.12
2019-05-21T07:08:36.484Z,3.10
2019-05-21T07:09:41.015Z,2.70
2019-05-21T07:10:45.444Z,3.22
2019-05-21T07:11:50.039Z,2.75
2019-05-21T07:12:54.427Z,3.05
2019-05-21T07:14:00.073Z,2.58
2019-05-21T07:15:06.290Z,2.87
2019-05-21T07:16:10.827Z,2.20
2019-05-21T07:17:15.179Z,2.47
2019-05-21T07:18:19.779Z,2.77
2019-05-21T07:19:24.305Z,2.30
2019-05-21T07:20:28.916Z,2.60
2019-05-21T07:21:33.339Z,2.52
2019-05-21T07:22:37.911Z,2.40
2019-05-21T07:23:42.391Z,2.45
2019-05-21T07:24:47.024Z,2.25
2019-05-21T07:25:51.380Z,2.40
2019-05-21T07:26:56.956Z,2.70
2019-05-21T07:28:01.497Z,2.35
2019-05-21T07:29:06.222Z,2.22
2019-05-21T07:30:10.716Z,2.00
2019-05-21T07:31:17.597Z,2.10
2019-05-21T07:32:21.303Z,2.10
2019-05-21T07:33:25.882Z,2.10
2019-05-21T07:34:30.312Z,2.10
2019-05-21T07:35:34.841Z,2.00
2019-05-21T07:36:39.335Z,1.80
2019-05-21T07:37:43.891Z,2.37
2019-05-21T07:38:53.329Z,2.20
2019-05-21T07:39:54.773Z,2.17
2019-05-21T07:40:59.144Z,2.05
2019-05-21T07:42:03.689Z,2.02
2019-05-21T07:43:08.109Z,1.90
2019-05-21T07:44:12.727Z,2.17
2019-05-21T07:45:17.075Z,1.90
2019-05-21T07:46:21.616Z,2.40
2019-05-21T07:47:25.974Z,1.92
2019-05-21T07:48:30.543Z,1.90
2019-05-21T07:49:34.919Z,1.70
2019-05-21T07:50:39.562Z,1.97
2019-05-21T07:51:44.323Z,2.15
2019-05-21T07:52:48.964Z,2.02
2019-05-21T07:53:54.607Z,1.80
2019-05-21T07:54:59.128Z,1.67
2019-05-21T07:56:03.551Z,2.02
2019-05-21T07:57:08.125Z,1.90
2019-05-21T07:58:12.655Z,2.03
2019-05-21T07:59:17.391Z,1.80
2019-05-21T08:00:21.744Z,1.87
2019-05-21T08:01:26.420Z,2.17
2019-05-21T08:02:30.775Z,1.77
2019-05-21T08:03:35.313Z,1.85
2019-05-21T08:04:39.816Z,1.92
2019-05-21T08:05:44.355Z,1.80
2019-05-21T08:06:48.783Z,2.12
2019-05-21T08:07:53.360Z,1.80
2019-05-21T08:09:12.407Z,2.12
2019-05-21T08:10:06.715Z,1.90
2019-05-21T08:11:11.263Z,2.20
2019-05-21T08:12:36.844Z,2.00
2019-05-21T08:13:22.156Z,1.87
2019-05-21T08:14:26.694Z,1.90
2019-05-21T08:15:31.180Z,2.00
2019-05-21T08:16:35.823Z,1.72
2019-05-21T08:17:40.184Z,2.02
2019-05-21T08:18:44.723Z,1.87
2019-05-21T08:19:49.432Z,1.80
2019-05-21T08:20:54.065Z,1.90
2019-05-21T08:21:58.493Z,2.05
2019-05-21T08:23:03.034Z,2.00
2019-05-21T08:24:07.385Z,2.02
2019-05-21T08:25:14.776Z,2.13
2019-05-21T08:26:18.301Z,2.33
2019-05-21T08:27:22.855Z,2.17
2019-05-21T08:28:27.204Z,2.02
2019-05-21T08:29:31.804Z,2.30
2019-05-21T08:30:36.165Z,2.05
2019-05-21T08:31:40.971Z,2.20
2019-05-21T08:32:45.394Z,1.90
2019-05-21T08:33:49.935Z,1.80
2019-05-21T08:34:54.357Z,2.15
2019-05-21T08:35:58.895Z,1.90
2019-05-21T08:37:03.693Z,2.40
2019-05-21T08:38:08.295Z,2.22
2019-05-21T08:39:27.374Z,2.00
2019-05-21T08:40:18.879Z,1.97
2019-05-21T08:41:23.267Z,2.10
2019-05-21T08:42:27.947Z,1.85
2019-05-21T08:43:32.415Z,1.92
2019-05-21T08:44:36.893Z,2.00
2019-05-21T08:45:41.251Z,2.10
2019-05-21T08:46:45.822Z,2.00
2019-05-21T08:47:50.174Z,1.90
2019-05-21T08:48:54.755Z,2.15
2019-05-21T08:49:59.111Z,1.90
2019-05-21T08:51:03.722Z,2.20
2019-05-21T08:52:08.117Z,2.00
2019-05-21T08:53:12.665Z,1.90
2019-05-21T08:54:18.442Z,1.83
2019-05-21T08:55:23.058Z,1.80
2019-05-21T08:56:27.407Z,1.80
2019-05-21T08:57:31.970Z,1.87
2019-05-21T08:58:36.393Z,1.90
2019-05-21T08:59:41.014Z,1.87
2019-05-21T09:00:45.354Z,2.22
2019-05-21T09:01:49.883Z,1.98
2019-05-21T09:02:54.236Z,2.77
2019-05-21T09:03:58.804Z,2.30
2019-05-21T09:05:03.158Z,2.25
2019-05-21T09:06:07.700Z,1.95
2019-05-21T09:07:12.119Z,1.90
2019-05-21T09:08:16.696Z,1.90
2019-05-21T09:09:21.042Z,2.07
2019-05-21T09:10:25.535Z,1.82
2019-05-21T09:11:29.907Z,1.90
2019-05-21T09:12:34.496Z,1.67
2019-05-21T09:13:38.916Z,2.00
2019-05-21T09:14:43.447Z,1.92
2019-05-21T09:15:47.920Z,1.98
2019-05-21T09:16:52.456Z,1.92
2019-05-21T09:17:56.811Z,1.82
2019-05-21T09:19:01.423Z,2.08
2019-05-21T09:20:09.602Z,2.17
2019-05-21T09:21:14.260Z,2.10
2019-05-21T09:22:19.581Z,1.73
2019-05-21T09:23:24.165Z,2.05
2019-05-21T09:24:29.491Z,1.90
2019-05-21T09:25:34.028Z,1.95
2019-05-21T09:26:38.627Z,2.22
2019-05-21T09:27:43.213Z,2.10
2019-05-21T09:28:48.534Z,1.90
2019-05-21T09:29:53.073Z,1.90
2019-05-21T09:31:01.585Z,2.15
2019-05-21T09:32:05.163Z,1.80
2019-05-21T09:33:09.518Z,2.10
2019-05-21T09:34:14.089Z,1.90
2019-05-21T09:35:18.521Z,1.77
2019-05-21T09:36:25.246Z,2.00
2019-05-21T09:37:29.209Z,2.00
2019-05-21T09:38:33.788Z,1.70
2019-05-21T09:39:38.144Z,2.08
2019-05-21T09:40:42.713Z,2.30
2019-05-21T09:41:47.134Z,2.02
2019-05-21T09:42:51.719Z,1.90
2019-05-21T09:43:56.060Z,2.25
2019-05-21T09:45:00.752Z,2.30
2019-05-21T09:46:05.137Z,2.33
2019-05-21T09:47:09.684Z,2.40
2019-05-21T09:48:14.067Z,2.00
2019-05-21T09:49:18.726Z,2.02
2019-05-21T09:50:23.187Z,2.33
2019-05-21T09:51:27.753Z,1.60
2019-05-21T09:52:32.110Z,2.08
2019-05-21T09:53:36.934Z,1.85
2019-05-21T09:54:41.348Z,2.20
2019-05-21T09:55:45.938Z,1.90
2019-05-21T09:56:50.357Z,2.00
2019-05-21T09:58:05.039Z,1.85
2019-05-21T09:59:17.077Z,2.00
2019-05-21T10:00:34.404Z,2.20
2019-05-21T10:01:47.496Z,2.25
2019-05-21T10:02:49.472Z,1.75
2019-05-21T10:03:58.903Z,1.87
2019-05-21T10:05:03.624Z,1.73
2019-05-21T10:06:08.343Z,1.90
2019-05-21T10:07:12.711Z,1.83
2019-05-21T10:08:17.503Z,1.80
2019-05-21T10:09:21.971Z,1.93
2019-05-21T10:10:26.948Z,1.82
2019-05-21T10:11:31.165Z,1.40
2019-05-21T10:12:36.874Z,2.08
2019-05-21T10:13:41.039Z,1.70
2019-05-21T10:14:45.767Z,1.60
2019-05-21T10:15:50.026Z,2.12
2019-05-21T10:16:54.831Z,1.92
2019-05-21T10:17:59.055Z,1.70
2019-05-21T10:19:03.818Z,1.60
2019-05-21T10:20:08.051Z,1.60
2019-05-21T10:21:12.773Z,1.73
2019-05-21T10:22:17.015Z,1.70
2019-05-21T10:23:21.910Z,2.00
2019-05-21T10:24:26.085Z,2.00
2019-05-21T10:25:30.858Z,1.62
2019-05-21T10:26:35.340Z,1.80
2019-05-21T10:27:41.105Z,1.60
2019-05-21T10:28:45.362Z,1.55
2019-05-21T10:29:50.080Z,1.70
2019-05-21T10:30:54.271Z,1.70
2019-05-21T10:31:59.140Z,2.22
2019-05-21T10:33:03.420Z,1.75
2019-05-21T10:34:08.141Z,1.72
2019-05-21T10:35:12.462Z,1.77
2019-05-21T10:36:17.487Z,1.97
2019-05-21T10:37:21.907Z,1.70
2019-05-21T10:38:26.804Z,1.62
2019-05-21T10:39:31.113Z,1.60
2019-05-21T10:40:35.831Z,1.67
2019-05-21T10:41:40.004Z,1.82
2019-05-21T10:42:44.821Z,1.60
2019-05-21T10:43:48.968Z,1.67
2019-05-21T10:44:53.705Z,1.60
2019-05-21T10:45:57.868Z,1.50
2019-05-21T10:47:02.667Z,1.65
2019-05-21T10:48:06.993Z,1.45
2019-05-21T10:49:11.789Z,1.63
2019-05-21T10:50:15.978Z,1.57
2019-05-21T10:51:20.721Z,1.77
2019-05-21T10:52:25.336Z,1.65
2019-05-21T10:53:30.327Z,1.60
2019-05-21T10:54:34.483Z,1.72
2019-05-21T10:55:39.206Z,1.62
2019-05-21T10:56:48.090Z,1.65
2019-05-21T10:57:50.045Z,1.55
2019-05-21T10:58:54.397Z,1.50
2019-05-21T10:59:59.122Z,1.65
2019-05-21T11:01:04.951Z,1.67
2019-05-21T11:02:13.640Z,1.60
2019-05-21T11:03:19.479Z,1.67
2019-05-21T11:04:25.462Z,1.70
2019-05-21T11:05:37.055Z,1.77
2019-05-21T11:06:43.289Z,1.55
2019-05-21T11:07:47.463Z,1.75
2019-05-21T11:08:52.183Z,1.57
2019-05-21T11:09:56.641Z,1.60
2019-05-21T11:11:01.414Z,1.60
2019-05-21T11:12:06.953Z,1.60
2019-05-21T11:13:11.700Z,1.77
2019-05-21T11:14:15.863Z,1.60
2019-05-21T11:15:20.810Z,1.67
2019-05-21T11:16:25.058Z,1.52
2019-05-21T11:17:29.658Z,1.47
2019-05-21T11:18:33.811Z,1.40
2019-05-21T11:19:39.428Z,1.57
2019-05-21T11:20:43.660Z,1.52
2019-05-21T11:21:48.410Z,1.47
2019-05-21T11:22:52.619Z,1.47
2019-05-21T11:23:58.468Z,1.45
2019-05-21T11:25:02.667Z,1.82
2019-05-21T11:26:07.431Z,1.80
2019-05-21T11:27:11.640Z,1.60
2019-05-21T11:28:16.437Z,1.50
2019-05-21T11:29:20.613Z,1.80
2019-05-21T11:30:25.624Z,1.60
2019-05-21T11:31:29.806Z,1.70
2019-05-21T11:32:34.564Z,1.62
2019-05-21T11:33:38.829Z,2.20
2019-05-21T11:34:43.553Z,1.77
2019-05-21T11:35:47.895Z,1.65
2019-05-21T11:36:52.723Z,1.87
2019-05-21T11:37:57.014Z,1.90
2019-05-21T11:39:01.738Z,1.75
2019-05-21T11:40:08.495Z,1.80
2019-05-21T11:41:12.715Z,1.70
2019-05-21T11:42:16.875Z,1.50
2019-05-21T11:43:21.728Z,1.50
2019-05-21T11:44:25.948Z,1.40
2019-05-21T11:45:32.779Z,1.87
2019-05-21T11:46:37.736Z,1.98
2019-05-21T11:47:42.533Z,1.82
2019-05-21T11:48:46.698Z,1.60
2019-05-21T11:49:52.387Z,2.12
2019-05-21T11:50:56.576Z,2.15
2019-05-21T11:52:01.438Z,1.85
2019-05-21T11:53:05.722Z,1.87
2019-05-21T11:54:10.410Z,1.97
2019-05-21T11:55:14.585Z,1.70
2019-05-21T11:56:20.287Z,1.73
2019-05-21T11:57:24.449Z,1.80
2019-05-21T11:58:30.244Z,1.82
2019-05-21T11:59:34.399Z,2.10
2019-05-21T12:00:39.333Z,2.10
2019-05-21T12:01:43.495Z,1.67
2019-05-21T12:02:48.217Z,2.02
2019-05-21T12:03:52.532Z,2.00
2019-05-21T12:04:57.243Z,1.92
2019-05-21T12:06:01.674Z,1.90
2019-05-21T12:07:06.423Z,2.10
2019-05-21T12:08:10.735Z,2.20
2019-05-21T12:09:15.251Z,2.10
2019-05-21T12:10:19.417Z,2.13
2019-05-21T12:11:26.041Z,2.17
2019-05-21T12:12:30.143Z,2.15
2019-05-21T12:13:34.917Z,2.37
2019-05-21T12:14:39.032Z,2.30
2019-05-21T12:15:43.759Z,2.20
2019-05-21T12:16:47.958Z,2.12
2019-05-21T12:17:52.783Z,2.00
2019-05-21T12:18:56.956Z,2.37
2019-05-21T12:20:01.671Z,2.20
2019-05-21T12:21:05.864Z,2.45
2019-05-21T12:22:10.697Z,2.30
2019-05-21T12:23:14.867Z,2.50
2019-05-21T12:24:19.577Z,2.20
2019-05-21T12:25:23.838Z,2.33
2019-05-21T12:26:28.588Z,2.37
2019-05-21T12:27:33.840Z,2.75
2019-05-21T12:28:38.842Z,2.50
2019-05-21T12:29:43.015Z,2.33
2019-05-21T12:30:47.804Z,2.45
2019-05-21T12:31:52.104Z,2.58
2019-05-21T12:32:56.832Z,2.30
2019-05-21T12:34:01.101Z,2.40
2019-05-21T12:35:06.695Z,2.40
2019-05-21T12:36:10.930Z,2.30
2019-05-21T12:37:15.769Z,2.43
2019-05-21T12:38:19.935Z,2.20
2019-05-21T12:39:24.933Z,2.35
2019-05-21T12:40:29.097Z,2.20
2019-05-21T12:41:33.872Z,2.22
2019-05-21T12:42:38.061Z,2.20
2019-05-21T12:43:42.782Z,2.47
2019-05-21T12:44:47.071Z,2.22
2019-05-21T12:45:51.796Z,1.92
2019-05-21T12:46:57.063Z,2.27
2019-05-21T12:48:01.825Z,2.10
2019-05-21T12:49:06.132Z,2.25
2019-05-21T12:50:10.958Z,2.23
2019-05-21T12:51:16.115Z,2.30
2019-05-21T12:52:21.173Z,2.47
2019-05-21T12:53:25.438Z,2.50
2019-05-21T12:54:30.163Z,2.35
2019-05-21T12:55:34.333Z,2.00
2019-05-21T12:56:40.883Z,2.50
2019-05-21T12:57:45.332Z,2.75
2019-05-21T12:58:50.058Z,2.40
2019-05-21T12:59:54.229Z,2.50
2019-05-21T13:00:59.027Z,2.47
2019-05-21T13:02:03.196Z,2.27
2019-05-21T13:03:08.003Z,2.50
2019-05-21T13:04:12.201Z,2.90
2019-05-21T13:05:16.920Z,2.30
2019-05-21T13:06:21.117Z,2.50
2019-05-21T13:07:25.939Z,2.05
2019-05-21T13:08:30.347Z,2.40
2019-05-21T13:09:35.105Z,2.45
2019-05-21T13:10:39.389Z,2.40
2019-05-21T13:11:44.261Z,1.95
2019-05-21T13:12:49.752Z,2.00
2019-05-21T13:13:54.661Z,2.15
2019-05-21T13:14:58.865Z,2.40
2019-05-21T13:16:03.945Z,2.12
2019-05-21T13:17:08.593Z,1.60
2019-05-21T13:18:13.373Z,2.27
2019-05-21T13:19:17.538Z,2.07
2019-05-21T13:20:22.472Z,1.65
2019-05-21T13:21:26.637Z,2.30
2019-05-21T13:22:31.615Z,2.03
2019-05-21T13:23:35.969Z,1.87
2019-05-21T13:24:40.704Z,1.80
2019-05-21T13:25:44.967Z,2.10
2019-05-21T13:26:49.722Z,2.08
2019-05-21T13:27:57.553Z,2.10
2019-05-21T13:29:00.910Z,2.52
2019-05-21T13:30:08.286Z,2.02
2019-05-21T13:31:13.190Z,1.93
2019-05-21T13:32:17.427Z,1.97
2019-05-21T13:33:22.143Z,1.97
2019-05-21T13:34:26.314Z,2.25
2019-05-21T13:35:31.190Z,2.35
2019-05-21T13:36:36.522Z,2.08
2019-05-21T13:37:41.222Z,1.98
2019-05-21T13:38:45.403Z,1.92
2019-05-21T13:39:50.760Z,2.58
2019-05-21T13:40:55.316Z,1.85
2019-05-21T13:42:00.150Z,2.05
2019-05-21T13:43:04.368Z,2.10
2019-05-21T13:44:09.098Z,2.17
2019-05-21T13:45:13.263Z,2.10
2019-05-21T13:46:18.163Z,2.10
2019-05-21T13:47:22.477Z,2.30
2019-05-21T13:48:27.371Z,2.15
2019-05-21T13:49:31.536Z,2.12
2019-05-21T13:50:36.303Z,2.10
2019-05-21T13:51:40.571Z,2.12
2019-05-21T13:52:45.305Z,1.92
2019-05-21T13:53:49.484Z,2.02
2019-05-21T13:54:54.452Z,2.47
2019-05-21T13:55:58.647Z,2.25
2019-05-21T13:57:03.384Z,1.82
2019-05-21T13:58:07.539Z,2.12
2019-05-21T13:59:12.565Z,2.47
2019-05-21T14:00:20.928Z,2.10
2019-05-21T14:01:40.007Z,2.47
2019-05-21T14:02:34.463Z,2.43
2019-05-21T14:03:39.253Z,2.00
2019-05-21T14:04:43.555Z,2.47
2019-05-21T14:05:48.274Z,2.15
2019-05-21T14:06:52.580Z,2.20
2019-05-21T14:07:57.401Z,2.35
2019-05-21T14:09:01.638Z,2.10
2019-05-21T14:10:14.904Z,2.67
2019-05-21T14:11:13.693Z,2.00
2019-05-21T14:12:18.690Z,2.03
2019-05-21T14:13:22.846Z,2.52
2019-05-21T14:14:27.613Z,2.27
2019-05-21T14:15:31.790Z,2.30
2019-05-21T14:16:36.928Z,2.12
2019-05-21T14:17:41.098Z,2.17
2019-05-21T14:18:46.016Z,2.02
2019-05-21T14:19:50.260Z,2.20
2019-05-21T14:20:55.248Z,2.20